sensor_id;sensor_type;location;lat;lon;timestamp;temperature;humidity
59855;DHT22;45732;52.850;6.896;2023-06-10T00:01:29;18.10;99.90
59855;DHT22;45732;52.850;6.896;2023-06-10T00:03:55;18.10;99.90
59855;DHT22;45732;52.850;6.896;2023-06-10T00:06:21;18.00;99.90
59855;DHT22;45732;52.850;6.896;2023-06-10T00:08:50;17.90;99.90
59855;DHT22;45732;52.850;6.896;2023-06-10T00:11:16;18.00;99.90
59855;DHT22;45732;52.850;6.896;2023-06-10T00:13:42;18.00;99.90
59855;DHT22;45732;52.850;6.896;2023-06-10T00:16:08;18.00;99.90
59855;DHT22;45732;52.850;6.896;2023-06-10T00:18:34;18.10;99.90
59855;DHT22;45732;52.850;6.896;2023-06-10T00:21:02;18.00;99.90
59855;DHT22;45732;52.850;6.896;2023-06-10T00:23:31;18.00;99.90
59855;DHT22;45732;52.850;6.896;2023-06-10T00:26:00;18.00;99.90
59855;DHT22;45732;52.850;6.896;2023-06-10T00:28:26;17.90;99.90
59855;DHT22;45732;52.850;6.896;2023-06-10T00:30:51;17.90;99.90
59855;DHT22;45732;52.850;6.896;2023-06-10T00:33:17;17.80;99.90
59855;DHT22;45732;52.850;6.896;2023-06-10T00:35:43;17.80;99.90
59855;DHT22;45732;52.850;6.896;2023-06-10T00:38:08;17.80;99.90
59855;DHT22;45732;52.850;6.896;2023-06-10T00:40:41;17.80;99.90
59855;DHT22;45732;52.850;6.896;2023-06-10T00:43:07;17.80;99.90
59855;DHT22;45732;52.850;6.896;2023-06-10T00:45:33;17.60;99.90
59855;DHT22;45732;52.850;6.896;2023-06-10T00:48:00;17.70;99.90
59855;DHT22;45732;52.850;6.896;2023-06-10T00:50:26;17.70;99.90
59855;DHT22;45732;52.850;6.896;2023-06-10T00:52:53;17.70;99.90
59855;DHT22;45732;52.850;6.896;2023-06-10T00:55:19;17.60;99.90
59855;DHT22;45732;52.850;6.896;2023-06-10T00:57:46;17.60;99.90
59855;DHT22;45732;52.850;6.896;2023-06-10T01:00:14;17.60;99.90
59855;DHT22;45732;52.850;6.896;2023-06-10T01:02:41;17.60;99.90
59855;DHT22;45732;52.850;6.896;2023-06-10T01:05:08;17.60;99.90
59855;DHT22;45732;52.850;6.896;2023-06-10T01:07:52;17.60;99.90
59855;DHT22;45732;52.850;6.896;2023-06-10T01:13:18;17.50;99.90
59855;DHT22;45732;52.850;6.896;2023-06-10T01:15:50;17.50;99.90
59855;DHT22;45732;52.850;6.896;2023-06-10T01:18:16;17.40;99.90
59855;DHT22;45732;52.850;6.896;2023-06-10T01:20:43;17.40;99.90
59855;DHT22;45732;52.850;6.896;2023-06-10T01:23:12;17.30;99.90
59855;DHT22;45732;52.850;6.896;2023-06-10T01:25:41;17.30;99.90
59855;DHT22;45732;52.850;6.896;2023-06-10T01:33:45;17.30;99.90
59855;DHT22;45732;52.850;6.896;2023-06-10T01:36:13;17.20;99.90
59855;DHT22;45732;52.850;6.896;2023-06-10T01:38:43;17.20;99.90
59855;DHT22;45732;52.850;6.896;2023-06-10T01:41:11;17.10;99.90
59855;DHT22;45732;52.850;6.896;2023-06-10T01:43:38;17.10;99.90
59855;DHT22;45732;52.850;6.896;2023-06-10T01:46:05;17.00;99.90
59855;DHT22;45732;52.850;6.896;2023-06-10T01:48:31;16.90;99.90
59855;DHT22;45732;52.850;6.896;2023-06-10T01:50:57;16.90;99.90
59855;DHT22;45732;52.850;6.896;2023-06-10T01:53:22;16.80;99.90
59855;DHT22;45732;52.850;6.896;2023-06-10T01:55:48;16.80;99.90
59855;DHT22;45732;52.850;6.896;2023-06-10T01:58:14;16.70;99.90
59855;DHT22;45732;52.850;6.896;2023-06-10T02:00:40;16.60;99.90
59855;DHT22;45732;52.850;6.896;2023-06-10T02:03:06;16.60;99.90
59855;DHT22;45732;52.850;6.896;2023-06-10T02:05:31;16.60;99.90
59855;DHT22;45732;52.850;6.896;2023-06-10T02:07:57;16.50;99.90
59855;DHT22;45732;52.850;6.896;2023-06-10T02:10:23;16.50;99.90
59855;DHT22;45732;52.850;6.896;2023-06-10T02:12:49;16.40;99.90
59855;DHT22;45732;52.850;6.896;2023-06-10T02:15:15;16.40;99.90
59855;DHT22;45732;52.850;6.896;2023-06-10T02:17:40;16.40;99.90
59855;DHT22;45732;52.850;6.896;2023-06-10T02:20:06;16.40;99.90
59855;DHT22;45732;52.850;6.896;2023-06-10T02:22:33;16.30;99.90
59855;DHT22;45732;52.850;6.896;2023-06-10T02:24:59;16.20;99.90
59855;DHT22;45732;52.850;6.896;2023-06-10T02:27:25;16.20;99.90
59855;DHT22;45732;52.850;6.896;2023-06-10T02:29:51;16.10;99.90
59855;DHT22;45732;52.850;6.896;2023-06-10T02:32:16;16.10;99.90
59855;DHT22;45732;52.850;6.896;2023-06-10T02:34:42;16.00;99.90
59855;DHT22;45732;52.850;6.896;2023-06-10T02:37:09;16.00;99.90
59855;DHT22;45732;52.850;6.896;2023-06-10T02:39:35;15.90;99.90
59855;DHT22;45732;52.850;6.896;2023-06-10T02:42:01;15.90;99.90
59855;DHT22;45732;52.850;6.896;2023-06-10T02:44:26;15.80;99.90
59855;DHT22;45732;52.850;6.896;2023-06-10T02:46:52;15.80;99.90
59855;DHT22;45732;52.850;6.896;2023-06-10T02:49:18;15.70;99.90
59855;DHT22;45732;52.850;6.896;2023-06-10T02:51:44;15.70;99.90
59855;DHT22;45732;52.850;6.896;2023-06-10T02:54:10;15.60;99.90
59855;DHT22;45732;52.850;6.896;2023-06-10T02:56:35;15.50;99.90
59855;DHT22;45732;52.850;6.896;2023-06-10T02:59:01;15.60;99.90
59855;DHT22;45732;52.850;6.896;2023-06-10T03:01:27;15.50;99.90
59855;DHT22;45732;52.850;6.896;2023-06-10T03:03:53;15.50;99.90
59855;DHT22;45732;52.850;6.896;2023-06-10T03:06:21;15.50;99.90
59855;DHT22;45732;52.850;6.896;2023-06-10T03:08:49;15.40;99.90
59855;DHT22;45732;52.850;6.896;2023-06-10T03:11:15;15.40;99.90
59855;DHT22;45732;52.850;6.896;2023-06-10T03:13:41;15.50;99.90
59855;DHT22;45732;52.850;6.896;2023-06-10T03:16:06;15.40;99.90
59855;DHT22;45732;52.850;6.896;2023-06-10T03:18:33;15.40;99.90
59855;DHT22;45732;52.850;6.896;2023-06-10T03:20:58;15.40;99.90
59855;DHT22;45732;52.850;6.896;2023-06-10T03:23:24;15.40;99.90
59855;DHT22;45732;52.850;6.896;2023-06-10T03:25:50;15.40;99.90
59855;DHT22;45732;52.850;6.896;2023-06-10T03:28:16;15.40;99.90
59855;DHT22;45732;52.850;6.896;2023-06-10T03:30:42;15.40;99.90
59855;DHT22;45732;52.850;6.896;2023-06-10T03:33:07;15.40;99.90
59855;DHT22;45732;52.850;6.896;2023-06-10T03:35:33;15.40;99.90
59855;DHT22;45732;52.850;6.896;2023-06-10T03:38:00;15.30;99.90
59855;DHT22;45732;52.850;6.896;2023-06-10T03:40:26;15.40;99.90
59855;DHT22;45732;52.850;6.896;2023-06-10T03:42:51;15.30;99.90
59855;DHT22;45732;52.850;6.896;2023-06-10T03:45:17;15.30;99.90
59855;DHT22;45732;52.850;6.896;2023-06-10T03:47:43;15.30;99.90
59855;DHT22;45732;52.850;6.896;2023-06-10T03:50:09;15.40;99.90
59855;DHT22;45732;52.850;6.896;2023-06-10T03:52:36;15.30;99.90
59855;DHT22;45732;52.850;6.896;2023-06-10T03:55:02;15.40;99.90
59855;DHT22;45732;52.850;6.896;2023-06-10T03:57:28;15.40;99.90
59855;DHT22;45732;52.850;6.896;2023-06-10T03:59:54;15.40;99.90
59855;DHT22;45732;52.850;6.896;2023-06-10T04:02:20;15.50;99.90
59855;DHT22;45732;52.850;6.896;2023-06-10T04:04:46;15.50;99.90
59855;DHT22;45732;52.850;6.896;2023-06-10T04:07:12;15.50;99.90
59855;DHT22;45732;52.850;6.896;2023-06-10T04:09:39;15.50;99.90
59855;DHT22;45732;52.850;6.896;2023-06-10T04:12:05;15.60;99.90
59855;DHT22;45732;52.850;6.896;2023-06-10T04:14:34;15.60;99.90
59855;DHT22;45732;52.850;6.896;2023-06-10T04:17:02;15.60;99.90
59855;DHT22;45732;52.850;6.896;2023-06-10T04:19:28;15.60;99.90
59855;DHT22;45732;52.850;6.896;2023-06-10T04:21:54;15.60;99.90
59855;DHT22;45732;52.850;6.896;2023-06-10T04:24:19;15.60;99.90
59855;DHT22;45732;52.850;6.896;2023-06-10T04:26:45;15.60;99.90
59855;DHT22;45732;52.850;6.896;2023-06-10T04:29:11;15.70;99.90
59855;DHT22;45732;52.850;6.896;2023-06-10T04:31:37;15.60;99.90
59855;DHT22;45732;52.850;6.896;2023-06-10T04:34:02;15.70;99.90
59855;DHT22;45732;52.850;6.896;2023-06-10T04:36:29;15.70;99.90
59855;DHT22;45732;52.850;6.896;2023-06-10T04:38:55;15.70;99.90
59855;DHT22;45732;52.850;6.896;2023-06-10T04:41:21;15.70;99.90
59855;DHT22;45732;52.850;6.896;2023-06-10T04:43:47;15.70;99.90
59855;DHT22;45732;52.850;6.896;2023-06-10T04:46:13;15.70;99.90
59855;DHT22;45732;52.850;6.896;2023-06-10T04:48:39;15.70;99.90
59855;DHT22;45732;52.850;6.896;2023-06-10T04:51:05;15.70;99.90
59855;DHT22;45732;52.850;6.896;2023-06-10T04:53:31;15.70;99.90
59855;DHT22;45732;52.850;6.896;2023-06-10T04:55:57;15.80;99.90
59855;DHT22;45732;52.850;6.896;2023-06-10T04:58:23;15.70;99.90
59855;DHT22;45732;52.850;6.896;2023-06-10T05:00:49;15.70;99.90
59855;DHT22;45732;52.850;6.896;2023-06-10T05:03:15;15.80;99.90
59855;DHT22;45732;52.850;6.896;2023-06-10T05:05:41;15.90;99.90
59855;DHT22;45732;52.850;6.896;2023-06-10T05:08:06;15.90;99.90
59855;DHT22;45732;52.850;6.896;2023-06-10T05:10:32;16.00;99.90
59855;DHT22;45732;52.850;6.896;2023-06-10T05:12:59;16.00;99.90
59855;DHT22;45732;52.850;6.896;2023-06-10T05:15:25;16.10;99.90
59855;DHT22;45732;52.850;6.896;2023-06-10T05:17:51;16.20;99.90
59855;DHT22;45732;52.850;6.896;2023-06-10T05:20:17;16.20;99.90
59855;DHT22;45732;52.850;6.896;2023-06-10T05:22:43;16.20;99.90
59855;DHT22;45732;52.850;6.896;2023-06-10T05:25:10;16.30;99.90
59855;DHT22;45732;52.850;6.896;2023-06-10T05:27:35;16.40;99.90
59855;DHT22;45732;52.850;6.896;2023-06-10T05:30:02;16.40;99.90
59855;DHT22;45732;52.850;6.896;2023-06-10T05:32:28;16.50;99.90
59855;DHT22;45732;52.850;6.896;2023-06-10T05:34:54;16.50;99.90
59855;DHT22;45732;52.850;6.896;2023-06-10T05:37:20;16.60;99.90
59855;DHT22;45732;52.850;6.896;2023-06-10T05:39:45;16.60;99.90
59855;DHT22;45732;52.850;6.896;2023-06-10T05:42:11;16.70;99.90
59855;DHT22;45732;52.850;6.896;2023-06-10T05:44:37;16.80;99.90
59855;DHT22;45732;52.850;6.896;2023-06-10T05:47:03;16.80;99.90
59855;DHT22;45732;52.850;6.896;2023-06-10T05:49:29;16.90;99.90
59855;DHT22;45732;52.850;6.896;2023-06-10T05:51:54;17.00;99.90
59855;DHT22;45732;52.850;6.896;2023-06-10T05:54:21;17.00;99.90
59855;DHT22;45732;52.850;6.896;2023-06-10T05:56:47;17.10;99.90
59855;DHT22;45732;52.850;6.896;2023-06-10T05:59:13;17.10;99.90
59855;DHT22;45732;52.850;6.896;2023-06-10T06:01:38;17.10;99.90
59855;DHT22;45732;52.850;6.896;2023-06-10T06:04:04;17.10;99.90
59855;DHT22;45732;52.850;6.896;2023-06-10T06:06:30;17.20;99.90
59855;DHT22;45732;52.850;6.896;2023-06-10T06:08:56;17.20;99.90
59855;DHT22;45732;52.850;6.896;2023-06-10T06:11:21;17.20;99.90
59855;DHT22;45732;52.850;6.896;2023-06-10T06:13:47;17.30;99.90
59855;DHT22;45732;52.850;6.896;2023-06-10T06:16:13;17.30;99.90
59855;DHT22;45732;52.850;6.896;2023-06-10T06:18:39;17.40;99.90
59855;DHT22;45732;52.850;6.896;2023-06-10T06:21:05;17.40;99.90
59855;DHT22;45732;52.850;6.896;2023-06-10T06:23:30;17.40;99.90
59855;DHT22;45732;52.850;6.896;2023-06-10T06:25:56;17.50;99.90
59855;DHT22;45732;52.850;6.896;2023-06-10T06:28:22;17.50;99.90
59855;DHT22;45732;52.850;6.896;2023-06-10T06:30:48;17.60;99.90
59855;DHT22;45732;52.850;6.896;2023-06-10T06:33:14;17.60;99.90
59855;DHT22;45732;52.850;6.896;2023-06-10T06:35:39;17.60;99.90
59855;DHT22;45732;52.850;6.896;2023-06-10T06:38:05;17.60;99.90
59855;DHT22;45732;52.850;6.896;2023-06-10T06:40:31;17.70;99.90
59855;DHT22;45732;52.850;6.896;2023-06-10T06:42:57;17.80;99.90
59855;DHT22;45732;52.850;6.896;2023-06-10T06:45:22;17.80;99.90
59855;DHT22;45732;52.850;6.896;2023-06-10T06:47:48;17.90;99.90
59855;DHT22;45732;52.850;6.896;2023-06-10T06:50:14;18.00;99.90
59855;DHT22;45732;52.850;6.896;2023-06-10T06:52:40;18.00;99.90
59855;DHT22;45732;52.850;6.896;2023-06-10T06:55:06;18.10;99.90
59855;DHT22;45732;52.850;6.896;2023-06-10T06:57:32;18.10;99.90
59855;DHT22;45732;52.850;6.896;2023-06-10T06:59:58;18.20;99.90
59855;DHT22;45732;52.850;6.896;2023-06-10T07:02:23;18.20;99.90
59855;DHT22;45732;52.850;6.896;2023-06-10T07:04:49;18.30;99.90
59855;DHT22;45732;52.850;6.896;2023-06-10T07:07:15;18.40;99.90
59855;DHT22;45732;52.850;6.896;2023-06-10T07:09:41;18.40;99.90
59855;DHT22;45732;52.850;6.896;2023-06-10T07:12:07;18.50;99.90
59855;DHT22;45732;52.850;6.896;2023-06-10T07:14:33;18.50;99.90
59855;DHT22;45732;52.850;6.896;2023-06-10T07:16:59;18.50;99.90
59855;DHT22;45732;52.850;6.896;2023-06-10T07:19:24;18.60;99.90
59855;DHT22;45732;52.850;6.896;2023-06-10T07:21:50;18.60;99.90
59855;DHT22;45732;52.850;6.896;2023-06-10T07:24:16;18.60;99.90
59855;DHT22;45732;52.850;6.896;2023-06-10T07:26:42;18.70;99.90
59855;DHT22;45732;52.850;6.896;2023-06-10T07:29:07;18.70;99.90
59855;DHT22;45732;52.850;6.896;2023-06-10T07:31:33;18.80;99.90
59855;DHT22;45732;52.850;6.896;2023-06-10T07:33:58;18.80;99.90
59855;DHT22;45732;52.850;6.896;2023-06-10T07:36:24;18.80;99.90
59855;DHT22;45732;52.850;6.896;2023-06-10T07:38:53;18.90;99.90
59855;DHT22;45732;52.850;6.896;2023-06-10T07:41:19;19.00;99.90
59855;DHT22;45732;52.850;6.896;2023-06-10T07:43:45;19.00;99.90
59855;DHT22;45732;52.850;6.896;2023-06-10T07:46:11;19.10;99.90
59855;DHT22;45732;52.850;6.896;2023-06-10T07:48:37;19.10;99.90
59855;DHT22;45732;52.850;6.896;2023-06-10T07:51:03;19.20;99.90
59855;DHT22;45732;52.850;6.896;2023-06-10T07:53:28;19.20;99.90
59855;DHT22;45732;52.850;6.896;2023-06-10T07:55:54;19.20;99.90
59855;DHT22;45732;52.850;6.896;2023-06-10T07:58:20;19.30;99.90
59855;DHT22;45732;52.850;6.896;2023-06-10T08:00:47;19.30;99.90
59855;DHT22;45732;52.850;6.896;2023-06-10T08:03:13;19.40;99.90
59855;DHT22;45732;52.850;6.896;2023-06-10T08:05:39;19.50;99.90
59855;DHT22;45732;52.850;6.896;2023-06-10T08:08:05;19.60;99.90
59855;DHT22;45732;52.850;6.896;2023-06-10T08:10:31;19.70;99.90
59855;DHT22;45732;52.850;6.896;2023-06-10T08:12:57;19.80;99.90
59855;DHT22;45732;52.850;6.896;2023-06-10T08:15:23;19.80;99.90
59855;DHT22;45732;52.850;6.896;2023-06-10T08:17:48;19.90;99.90
59855;DHT22;45732;52.850;6.896;2023-06-10T08:20:14;20.00;99.90
59855;DHT22;45732;52.850;6.896;2023-06-10T08:22:40;20.10;99.90
59855;DHT22;45732;52.850;6.896;2023-06-10T08:25:06;20.10;99.90
59855;DHT22;45732;52.850;6.896;2023-06-10T08:27:32;20.20;99.90
59855;DHT22;45732;52.850;6.896;2023-06-10T08:29:57;20.30;99.90
59855;DHT22;45732;52.850;6.896;2023-06-10T08:32:26;20.40;99.90
59855;DHT22;45732;52.850;6.896;2023-06-10T08:34:51;20.50;99.90
59855;DHT22;45732;52.850;6.896;2023-06-10T08:37:17;20.60;99.90
59855;DHT22;45732;52.850;6.896;2023-06-10T08:39:43;20.60;99.90
59855;DHT22;45732;52.850;6.896;2023-06-10T08:44:40;20.70;99.90
59855;DHT22;45732;52.850;6.896;2023-06-10T08:47:14;20.80;99.90
59855;DHT22;45732;52.850;6.896;2023-06-10T08:49:45;20.90;99.90
59855;DHT22;45732;52.850;6.896;2023-06-10T08:52:17;20.90;99.90
59855;DHT22;45732;52.850;6.896;2023-06-10T08:54:56;21.00;99.90
59855;DHT22;45732;52.850;6.896;2023-06-10T08:57:22;21.10;99.90
59855;DHT22;45732;52.850;6.896;2023-06-10T08:59:49;21.20;99.90
59855;DHT22;45732;52.850;6.896;2023-06-10T09:02:15;21.20;99.90
59855;DHT22;45732;52.850;6.896;2023-06-10T09:04:45;21.30;99.90
59855;DHT22;45732;52.850;6.896;2023-06-10T09:07:12;21.40;99.90
59855;DHT22;45732;52.850;6.896;2023-06-10T09:09:40;21.50;99.90
59855;DHT22;45732;52.850;6.896;2023-06-10T09:12:07;21.60;99.90
59855;DHT22;45732;52.850;6.896;2023-06-10T09:14:33;21.60;99.90
59855;DHT22;45732;52.850;6.896;2023-06-10T09:16:59;21.70;99.90
59855;DHT22;45732;52.850;6.896;2023-06-10T09:19:25;21.80;99.90
59855;DHT22;45732;52.850;6.896;2023-06-10T09:21:52;21.90;99.90
59855;DHT22;45732;52.850;6.896;2023-06-10T09:24:18;21.90;99.90
59855;DHT22;45732;52.850;6.896;2023-06-10T09:26:44;22.00;99.90
59855;DHT22;45732;52.850;6.896;2023-06-10T09:29:11;22.10;99.90
59855;DHT22;45732;52.850;6.896;2023-06-10T09:31:39;22.10;99.90
59855;DHT22;45732;52.850;6.896;2023-06-10T09:34:15;22.20;99.90
59855;DHT22;45732;52.850;6.896;2023-06-10T09:36:42;22.30;99.90
59855;DHT22;45732;52.850;6.896;2023-06-10T09:39:16;22.40;99.90
59855;DHT22;45732;52.850;6.896;2023-06-10T09:41:42;22.40;99.90
59855;DHT22;45732;52.850;6.896;2023-06-10T09:44:15;22.60;99.90
59855;DHT22;45732;52.850;6.896;2023-06-10T09:46:42;22.70;99.90
59855;DHT22;45732;52.850;6.896;2023-06-10T09:49:08;22.80;99.90
59855;DHT22;45732;52.850;6.896;2023-06-10T09:51:34;22.80;99.90
59855;DHT22;45732;52.850;6.896;2023-06-10T09:54:05;22.80;99.90
59855;DHT22;45732;52.850;6.896;2023-06-10T09:56:37;23.00;99.90
59855;DHT22;45732;52.850;6.896;2023-06-10T09:59:06;23.00;99.90
59855;DHT22;45732;52.850;6.896;2023-06-10T10:01:32;23.10;99.90
59855;DHT22;45732;52.850;6.896;2023-06-10T10:03:59;23.10;99.90
59855;DHT22;45732;52.850;6.896;2023-06-10T10:06:26;23.10;99.90
59855;DHT22;45732;52.850;6.896;2023-06-10T10:08:53;23.30;99.90
59855;DHT22;45732;52.850;6.896;2023-06-10T10:11:21;23.30;99.90
59855;DHT22;45732;52.850;6.896;2023-06-10T10:13:49;23.40;99.90
59855;DHT22;45732;52.850;6.896;2023-06-10T10:16:17;23.50;99.90
59855;DHT22;45732;52.850;6.896;2023-06-10T10:18:53;23.60;99.90
59855;DHT22;45732;52.850;6.896;2023-06-10T10:21:23;23.70;99.90
59855;DHT22;45732;52.850;6.896;2023-06-10T10:24:17;23.70;99.90
59855;DHT22;45732;52.850;6.896;2023-06-10T10:26:43;23.80;99.90
59855;DHT22;45732;52.850;6.896;2023-06-10T10:29:20;23.80;99.90
59855;DHT22;45732;52.850;6.896;2023-06-10T10:31:50;23.90;99.90
59855;DHT22;45732;52.850;6.896;2023-06-10T10:34:34;24.00;99.60
59855;DHT22;45732;52.850;6.896;2023-06-10T10:37:01;24.10;98.30
59855;DHT22;45732;52.850;6.896;2023-06-10T10:39:27;24.10;98.40
59855;DHT22;45732;52.850;6.896;2023-06-10T10:41:54;24.20;97.90
59855;DHT22;45732;52.850;6.896;2023-06-10T10:44:21;24.30;97.60
59855;DHT22;45732;52.850;6.896;2023-06-10T10:46:50;24.40;97.00
59855;DHT22;45732;52.850;6.896;2023-06-10T10:49:17;24.50;97.20
59855;DHT22;45732;52.850;6.896;2023-06-10T10:51:59;24.60;96.90
59855;DHT22;45732;52.850;6.896;2023-06-10T10:54:29;24.60;97.10
59855;DHT22;45732;52.850;6.896;2023-06-10T10:57:21;24.70;96.50
59855;DHT22;45732;52.850;6.896;2023-06-10T10:59:58;24.80;96.00
59855;DHT22;45732;52.850;6.896;2023-06-10T11:02:44;24.90;96.90
59855;DHT22;45732;52.850;6.896;2023-06-10T11:05:16;25.00;97.50
59855;DHT22;45732;52.850;6.896;2023-06-10T11:07:53;25.10;97.70
59855;DHT22;45732;52.850;6.896;2023-06-10T11:10:32;25.10;96.90
59855;DHT22;45732;52.850;6.896;2023-06-10T11:12:58;25.20;95.40
59855;DHT22;45732;52.850;6.896;2023-06-10T11:15:26;25.30;95.50
59855;DHT22;45732;52.850;6.896;2023-06-10T11:18:14;25.40;95.20
59855;DHT22;45732;52.850;6.896;2023-06-10T11:33:55;25.70;92.70
59855;DHT22;45732;52.850;6.896;2023-06-10T11:36:21;25.80;91.20
59855;DHT22;45732;52.850;6.896;2023-06-10T11:38:48;25.80;92.50
59855;DHT22;45732;52.850;6.896;2023-06-10T11:41:14;25.80;92.80
59855;DHT22;45732;52.850;6.896;2023-06-10T11:43:43;25.80;92.40
59855;DHT22;45732;52.850;6.896;2023-06-10T11:46:10;25.80;92.00
59855;DHT22;45732;52.850;6.896;2023-06-10T11:48:36;25.90;92.10
59855;DHT22;45732;52.850;6.896;2023-06-10T11:51:07;25.90;91.70
59855;DHT22;45732;52.850;6.896;2023-06-10T11:53:34;26.00;92.20
59855;DHT22;45732;52.850;6.896;2023-06-10T11:55:59;26.00;91.60
59855;DHT22;45732;52.850;6.896;2023-06-10T11:58:25;26.10;92.10
59855;DHT22;45732;52.850;6.896;2023-06-10T12:00:53;26.10;92.10
59855;DHT22;45732;52.850;6.896;2023-06-10T12:03:20;26.10;92.40
59855;DHT22;45732;52.850;6.896;2023-06-10T12:06:01;26.20;92.40
59855;DHT22;45732;52.850;6.896;2023-06-10T12:08:27;26.20;91.50
59855;DHT22;45732;52.850;6.896;2023-06-10T12:10:53;26.20;91.20
59855;DHT22;45732;52.850;6.896;2023-06-10T12:13:20;26.30;91.30
59855;DHT22;45732;52.850;6.896;2023-06-10T12:15:46;26.30;89.50
59855;DHT22;45732;52.850;6.896;2023-06-10T12:18:24;26.30;90.10
59855;DHT22;45732;52.850;6.896;2023-06-10T12:20:51;26.30;91.40
59855;DHT22;45732;52.850;6.896;2023-06-10T12:23:17;26.30;90.70
59855;DHT22;45732;52.850;6.896;2023-06-10T12:25:51;26.30;90.20
59855;DHT22;45732;52.850;6.896;2023-06-10T12:28:18;26.40;87.00
59855;DHT22;45732;52.850;6.896;2023-06-10T12:30:46;26.30;84.60
59855;DHT22;45732;52.850;6.896;2023-06-10T12:33:21;26.40;85.10
59855;DHT22;45732;52.850;6.896;2023-06-10T12:35:51;26.40;84.40
59855;DHT22;45732;52.850;6.896;2023-06-10T12:38:25;26.40;85.60
59855;DHT22;45732;52.850;6.896;2023-06-10T12:40:53;26.40;81.60
59855;DHT22;45732;52.850;6.896;2023-06-10T12:43:25;26.40;84.30
59855;DHT22;45732;52.850;6.896;2023-06-10T12:45:51;26.40;84.50
59855;DHT22;45732;52.850;6.896;2023-06-10T12:48:22;26.40;84.70
59855;DHT22;45732;52.850;6.896;2023-06-10T12:53:18;26.30;85.20
59855;DHT22;45732;52.850;6.896;2023-06-10T12:55:45;26.30;86.30
59855;DHT22;45732;52.850;6.896;2023-06-10T12:58:12;26.30;82.10
59855;DHT22;45732;52.850;6.896;2023-06-10T13:00:39;26.30;76.30
59855;DHT22;45732;52.850;6.896;2023-06-10T13:03:05;26.20;76.70
59855;DHT22;45732;52.850;6.896;2023-06-10T13:05:32;26.20;80.00
59855;DHT22;45732;52.850;6.896;2023-06-10T13:07:59;26.20;83.20
59855;DHT22;45732;52.850;6.896;2023-06-10T13:10:25;26.10;80.60
59855;DHT22;45732;52.850;6.896;2023-06-10T13:12:52;26.10;80.70
59855;DHT22;45732;52.850;6.896;2023-06-10T13:15:17;26.10;79.60
59855;DHT22;45732;52.850;6.896;2023-06-10T13:17:44;26.10;79.90
59855;DHT22;45732;52.850;6.896;2023-06-10T13:20:14;26.00;80.50
59855;DHT22;45732;52.850;6.896;2023-06-10T13:22:40;25.90;80.30
59855;DHT22;45732;52.850;6.896;2023-06-10T13:25:06;25.90;80.90
59855;DHT22;45732;52.850;6.896;2023-06-10T13:27:33;25.90;81.40
59855;DHT22;45732;52.850;6.896;2023-06-10T13:29:59;25.80;80.60
59855;DHT22;45732;52.850;6.896;2023-06-10T13:32:25;25.80;82.60
59855;DHT22;45732;52.850;6.896;2023-06-10T13:34:50;25.80;80.60
59855;DHT22;45732;52.850;6.896;2023-06-10T13:37:16;25.70;79.60
59855;DHT22;45732;52.850;6.896;2023-06-10T13:39:43;25.70;79.10
59855;DHT22;45732;52.850;6.896;2023-06-10T13:42:09;25.70;78.70
59855;DHT22;45732;52.850;6.896;2023-06-10T13:44:35;25.60;79.20
59855;DHT22;45732;52.850;6.896;2023-06-10T13:47:05;25.60;79.30
59855;DHT22;45732;52.850;6.896;2023-06-10T13:49:30;25.60;78.50
59855;DHT22;45732;52.850;6.896;2023-06-10T13:51:56;25.60;79.60
59855;DHT22;45732;52.850;6.896;2023-06-10T13:54:22;25.60;79.70
59855;DHT22;45732;52.850;6.896;2023-06-10T13:56:48;25.60;79.90
59855;DHT22;45732;52.850;6.896;2023-06-10T13:59:14;25.60;80.30
59855;DHT22;45732;52.850;6.896;2023-06-10T14:01:39;25.50;81.20
59855;DHT22;45732;52.850;6.896;2023-06-10T14:04:08;25.60;80.60
59855;DHT22;45732;52.850;6.896;2023-06-10T14:06:34;25.60;80.80
59855;DHT22;45732;52.850;6.896;2023-06-10T14:09:00;25.60;80.00
59855;DHT22;45732;52.850;6.896;2023-06-10T14:11:26;25.60;77.20
59855;DHT22;45732;52.850;6.896;2023-06-10T14:13:51;25.60;75.40
59855;DHT22;45732;52.850;6.896;2023-06-10T14:16:17;25.70;75.80
59855;DHT22;45732;52.850;6.896;2023-06-10T14:18:43;25.70;76.50
59855;DHT22;45732;52.850;6.896;2023-06-10T14:21:08;25.70;77.70
59855;DHT22;45732;52.850;6.896;2023-06-10T14:23:35;25.70;79.00
59855;DHT22;45732;52.850;6.896;2023-06-10T14:26:00;25.60;77.80
59855;DHT22;45732;52.850;6.896;2023-06-10T14:28:28;25.50;78.30
59855;DHT22;45732;52.850;6.896;2023-06-10T14:30:54;25.50;77.70
59855;DHT22;45732;52.850;6.896;2023-06-10T14:33:20;25.60;78.20
59855;DHT22;45732;52.850;6.896;2023-06-10T14:35:46;25.60;77.90
59855;DHT22;45732;52.850;6.896;2023-06-10T14:38:11;25.60;78.20
59855;DHT22;45732;52.850;6.896;2023-06-10T14:40:37;25.60;77.50
59855;DHT22;45732;52.850;6.896;2023-06-10T14:43:03;25.50;77.50
59855;DHT22;45732;52.850;6.896;2023-06-10T14:45:35;25.60;77.70
59855;DHT22;45732;52.850;6.896;2023-06-10T14:48:01;25.50;79.30
59855;DHT22;45732;52.850;6.896;2023-06-10T14:50:27;25.50;78.40
59855;DHT22;45732;52.850;6.896;2023-06-10T14:52:52;25.60;78.50
59855;DHT22;45732;52.850;6.896;2023-06-10T14:55:18;25.60;77.60
59855;DHT22;45732;52.850;6.896;2023-06-10T14:57:44;25.60;77.90
59855;DHT22;45732;52.850;6.896;2023-06-10T15:00:10;25.60;77.60
59855;DHT22;45732;52.850;6.896;2023-06-10T15:02:37;25.50;78.20
59855;DHT22;45732;52.850;6.896;2023-06-10T15:05:03;25.60;79.10
59855;DHT22;45732;52.850;6.896;2023-06-10T15:07:29;25.60;79.40
59855;DHT22;45732;52.850;6.896;2023-06-10T15:09:55;25.60;79.00
59855;DHT22;45732;52.850;6.896;2023-06-10T15:12:21;25.60;78.80
59855;DHT22;45732;52.850;6.896;2023-06-10T15:14:46;25.60;77.90
59855;DHT22;45732;52.850;6.896;2023-06-10T15:17:12;25.60;78.00
59855;DHT22;45732;52.850;6.896;2023-06-10T15:19:38;25.60;78.10
59855;DHT22;45732;52.850;6.896;2023-06-10T15:22:04;25.70;79.30
59855;DHT22;45732;52.850;6.896;2023-06-10T15:24:29;25.70;79.40
59855;DHT22;45732;52.850;6.896;2023-06-10T15:26:55;25.70;80.00
59855;DHT22;45732;52.850;6.896;2023-06-10T15:29:21;25.80;80.20
59855;DHT22;45732;52.850;6.896;2023-06-10T15:31:47;25.90;79.10
59855;DHT22;45732;52.850;6.896;2023-06-10T15:34:12;26.00;76.90
59855;DHT22;45732;52.850;6.896;2023-06-10T15:36:38;26.10;76.00
59855;DHT22;45732;52.850;6.896;2023-06-10T15:39:05;26.20;77.20
59855;DHT22;45732;52.850;6.896;2023-06-10T15:41:33;26.30;77.50
59855;DHT22;45732;52.850;6.896;2023-06-10T15:43:59;26.50;77.70
59855;DHT22;45732;52.850;6.896;2023-06-10T15:46:28;26.70;78.10
59855;DHT22;45732;52.850;6.896;2023-06-10T15:48:54;26.90;78.40
59855;DHT22;45732;52.850;6.896;2023-06-10T15:51:20;27.20;77.40
59855;DHT22;45732;52.850;6.896;2023-06-10T15:53:45;27.60;77.20
59855;DHT22;45732;52.850;6.896;2023-06-10T15:56:13;27.90;77.60